Etusivu
METAR-TAF:

METAR-TAF

Lentoasemat :

Washington Municipal Airport

Washington, Iowa, Yhdysvallat

Leveyspiiri: 41-17N, Pituuspiiri: 091-40W, korkeus merenpinnasta: 230 m

Tämänhetkinen sää

Tämä raportti tehtiin 12 minuuttia sitten, kello 22.55 UTC
Tuuli 16 kn luoteesta puuskistuen 23 kn:hen
Lämpötila -8°C
Kosteus 62%
Ilmanpaine 1032 hPa
Näkyvyys: 16.1 km
Muutamia pilviä 3100 ft:n korkeudessa

METAR: KAWG 112255Z AUTO 32016G23KT 10SM FEW031 M08/M14 A3048 RMK AO2

Aika: 17:07 (23:07 UTC)


TAF: puuttuu

Säähavainnot ja -ennusteet yli 4000 lentoasemalta (METAR- ja TAF-raportit).

Käytössä olevat sääasemat on merkitty karttaan keltaisilla ja punaisilla pisteillä.

Aseta hiiri pisteen päälle nähdäksesi sääaseman nimen.

Klikkaa sitten nähdäksesi säähavainnot ja -ennusteet.

Kartan vaihtaminen: klikkaa mustalla rastilla varustettuja vihreitä pisteitä, niin voit zoomata sisään; viivalla varustettua vihreää pistettä, niin voit zoomata ulos tai vihreitä nuolia, niin pääset viereisille kartoille.


METAR-TAF: